LVCDV SASJ-SANT
Flight info
| Callsign | LVCDV |
|---|---|
| Flight time | 0h 52m |
| Altitude | 20000 |
| Route | TEGA2G TEGAV ILTAV POSMO |
| Aircraft | B350/M-SBGRW/S |
Departure
| Time | 2026-05-03 23:37 |
|---|---|
| Airport | Gobernador Horacio Guzman International Airport (SASJ) |
Arrival
| Time | 2026-05-04 00:30 |
|---|---|
| Airport | Teniente Benjamín Matienzo International Airport (SANT) |
| Time | Latitude | Longitude | Altitude | Speed | Heading |
|---|---|---|---|---|---|
| 2026-05-03 23:06 | -24.38623 | -65.09465 | 2985 ft | 0 kts | 161° |
| 2026-05-03 23:31 | -24.38624 | -65.09465 | 2985 ft | 0 kts | 172° |
| 2026-05-03 23:31 | -24.38640 | -65.09475 | 2985 ft | 10 kts | 248° |
| 2026-05-03 23:31 | -24.38586 | -65.09528 | 2988 ft | 12 kts | 330° |
| 2026-05-03 23:32 | -24.38572 | -65.09537 | 2989 ft | 8 kts | 329° |
| 2026-05-03 23:32 | -24.38568 | -65.09612 | 2990 ft | 25 kts | 237° |
| 2026-05-03 23:32 | -24.38648 | -65.09764 | 2990 ft | 24 kts | 237° |
| 2026-05-03 23:32 | -24.38694 | -65.09913 | 2991 ft | 18 kts | 324° |
| 2026-05-03 23:33 | -24.38567 | -65.09992 | 2998 ft | 14 kts | 330° |
| 2026-05-03 23:33 | -24.38515 | -65.10025 | 3000 ft | 12 kts | 330° |
| 2026-05-03 23:33 | -24.38450 | -65.10066 | 3003 ft | 9 kts | 330° |
| 2026-05-03 23:33 | -24.38397 | -65.10099 | 3006 ft | 8 kts | 331° |
| 2026-05-03 23:34 | -24.38341 | -65.10134 | 3008 ft | 12 kts | 330° |
| 2026-05-03 23:34 | -24.38249 | -65.10191 | 3013 ft | 18 kts | 331° |
| 2026-05-03 23:34 | -24.38129 | -65.10267 | 3021 ft | 20 kts | 329° |
| 2026-05-03 23:34 | -24.38021 | -65.10336 | 3026 ft | 15 kts | 314° |
| 2026-05-03 23:35 | -24.38042 | -65.10417 | 3024 ft | 11 kts | 239° |
| 2026-05-03 23:35 | -24.38045 | -65.10422 | 3024 ft | 0 kts | 232° |
| 2026-05-03 23:35 | -24.38047 | -65.10424 | 3025 ft | 4 kts | 232° |
| 2026-05-03 23:35 | -24.38125 | -65.10466 | 3023 ft | 22 kts | 194° |
| 2026-05-03 23:36 | -24.38154 | -65.10472 | 3022 ft | 0 kts | 160° |
| 2026-05-03 23:36 | -24.38313 | -65.10377 | 3014 ft | 72 kts | 150° |
| 2026-05-03 23:36 | -24.38967 | -65.09966 | 3007 ft | 137 kts | 150° |
| 2026-05-03 23:37 | -24.39876 | -65.09369 | 3331 ft | 161 kts | 147° |
| 2026-05-03 23:37 | -24.40723 | -65.08639 | 4173 ft | 149 kts | 134° |
| 2026-05-03 23:37 | -24.41466 | -65.07830 | 4757 ft | 159 kts | 132° |
| 2026-05-03 23:37 | -24.42259 | -65.06916 | 5201 ft | 167 kts | 131° |
| 2026-05-03 23:38 | -24.43002 | -65.05977 | 5866 ft | 160 kts | 130° |
| 2026-05-03 23:38 | -24.43885 | -65.05145 | 6240 ft | 175 kts | 146° |
| 2026-05-03 23:38 | -24.44978 | -65.04539 | 6754 ft | 176 kts | 156° |
| 2026-05-03 23:38 | -24.46154 | -65.04152 | 7251 ft | 179 kts | 169° |
| 2026-05-03 23:39 | -24.47408 | -65.03992 | 7829 ft | 184 kts | 174° |
| 2026-05-03 23:39 | -24.48749 | -65.03854 | 8121 ft | 205 kts | 171° |
| 2026-05-03 23:39 | -24.50191 | -65.03552 | 8443 ft | 217 kts | 168° |
| 2026-05-03 23:39 | -24.51611 | -65.03198 | 9231 ft | 203 kts | 165° |
| 2026-05-03 23:40 | -24.52964 | -65.02840 | 9956 ft | 198 kts | 165° |
| 2026-05-03 23:40 | -24.54292 | -65.02483 | 10562 ft | 195 kts | 166° |
| 2026-05-03 23:40 | -24.55621 | -65.02373 | 11148 ft | 192 kts | 192° |
| 2026-05-03 23:40 | -24.56929 | -65.02307 | 11729 ft | 193 kts | 153° |
| 2026-05-03 23:41 | -24.57757 | -65.01211 | 12313 ft | 191 kts | 105° |
| 2026-05-03 23:41 | -24.58141 | -64.99833 | 12907 ft | 191 kts | 108° |
| 2026-05-03 23:41 | -24.58533 | -64.98436 | 13495 ft | 192 kts | 107° |
| 2026-05-03 23:41 | -24.58900 | -64.97025 | 14063 ft | 192 kts | 106° |
| 2026-05-03 23:42 | -24.59322 | -64.95629 | 14592 ft | 192 kts | 112° |
| 2026-05-03 23:42 | -24.59814 | -64.94260 | 15122 ft | 193 kts | 115° |
| 2026-05-03 23:42 | -24.60380 | -64.92931 | 15651 ft | 192 kts | 120° |
| 2026-05-03 23:42 | -24.60998 | -64.91629 | 16194 ft | 192 kts | 123° |
| 2026-05-03 23:43 | -24.61776 | -64.90466 | 16722 ft | 188 kts | 138° |
| 2026-05-03 23:43 | -24.62669 | -64.89423 | 17262 ft | 187 kts | 139° |
| 2026-05-03 23:43 | -24.63543 | -64.88357 | 17816 ft | 188 kts | 138° |
| 2026-05-03 23:43 | -24.64395 | -64.87266 | 18359 ft | 188 kts | 139° |
| 2026-05-03 23:44 | -24.65305 | -64.86259 | 18833 ft | 185 kts | 146° |
| 2026-05-03 23:44 | -24.66258 | -64.85316 | 19310 ft | 184 kts | 148° |
| 2026-05-03 23:44 | -24.67247 | -64.84384 | 19673 ft | 191 kts | 148° |
| 2026-05-03 23:44 | -24.68317 | -64.83430 | 19890 ft | 206 kts | 150° |
| 2026-05-03 23:45 | -24.69508 | -64.82432 | 19988 ft | 224 kts | 151° |
| 2026-05-03 23:45 | -24.70809 | -64.81380 | 20038 ft | 240 kts | 151° |
| 2026-05-03 23:45 | -24.72208 | -64.80273 | 20071 ft | 255 kts | 151° |
| 2026-05-03 23:45 | -24.73688 | -64.79119 | 20085 ft | 266 kts | 151° |
| 2026-05-03 23:46 | -24.75216 | -64.77944 | 20086 ft | 276 kts | 151° |
| 2026-05-03 23:46 | -24.76818 | -64.76743 | 20076 ft | 280 kts | 155° |
| 2026-05-03 23:46 | -24.78530 | -64.75711 | 20085 ft | 282 kts | 159° |
| 2026-05-03 23:46 | -24.80301 | -64.74752 | 20090 ft | 285 kts | 160° |
| 2026-05-03 23:47 | -24.82089 | -64.73817 | 20092 ft | 283 kts | 161° |
| 2026-05-03 23:47 | -24.83863 | -64.72902 | 20087 ft | 280 kts | 161° |
| 2026-05-03 23:47 | -24.85634 | -64.72029 | 20091 ft | 278 kts | 162° |
| 2026-05-03 23:47 | -24.87402 | -64.71185 | 20085 ft | 276 kts | 163° |
| 2026-05-03 23:48 | -24.89166 | -64.70352 | 20083 ft | 275 kts | 163° |
| 2026-05-03 23:48 | -24.90933 | -64.69524 | 20070 ft | 275 kts | 163° |
| 2026-05-03 23:48 | -24.92686 | -64.68703 | 20076 ft | 274 kts | 163° |
| 2026-05-03 23:48 | -24.94435 | -64.67888 | 20064 ft | 272 kts | 163° |
| 2026-05-03 23:49 | -24.96177 | -64.67074 | 20067 ft | 271 kts | 163° |
| 2026-05-03 23:49 | -24.97911 | -64.66263 | 20077 ft | 270 kts | 163° |
| 2026-05-03 23:49 | -24.99640 | -64.65451 | 20079 ft | 270 kts | 163° |
| 2026-05-03 23:49 | -25.01371 | -64.64637 | 20086 ft | 271 kts | 163° |
| 2026-05-03 23:50 | -25.03084 | -64.63830 | 20079 ft | 271 kts | 163° |
| 2026-05-03 23:50 | -25.04256 | -64.63277 | 20078 ft | 271 kts | 163° |
| 2026-05-03 23:50 | -25.06580 | -64.62181 | 20071 ft | 272 kts | 163° |
| 2026-05-03 23:50 | -25.08318 | -64.61362 | 20069 ft | 272 kts | 163° |
| 2026-05-03 23:51 | -25.10059 | -64.60542 | 20070 ft | 272 kts | 163° |
| 2026-05-03 23:51 | -25.11808 | -64.59743 | 20066 ft | 272 kts | 165° |
| 2026-05-03 23:51 | -25.13563 | -64.58972 | 20057 ft | 272 kts | 165° |
| 2026-05-03 23:51 | -25.15325 | -64.58226 | 20062 ft | 269 kts | 169° |
| 2026-05-03 23:52 | -25.17136 | -64.57881 | 20066 ft | 261 kts | 186° |
| 2026-05-03 23:52 | -25.18874 | -64.58130 | 20064 ft | 253 kts | 202° |
| 2026-05-03 23:52 | -25.20437 | -64.58942 | 20063 ft | 246 kts | 219° |
| 2026-05-03 23:52 | -25.21676 | -64.60211 | 20064 ft | 242 kts | 231° |
| 2026-05-03 23:53 | -25.22826 | -64.61561 | 20062 ft | 243 kts | 229° |
| 2026-05-03 23:53 | -25.24023 | -64.62898 | 20063 ft | 243 kts | 228° |
| 2026-05-03 23:53 | -25.25224 | -64.64217 | 20064 ft | 244 kts | 227° |
| 2026-05-03 23:53 | -25.26430 | -64.65532 | 20061 ft | 244 kts | 227° |
| 2026-05-03 23:54 | -25.27639 | -64.66847 | 20061 ft | 244 kts | 227° |
| 2026-05-03 23:54 | -25.28846 | -64.68158 | 20065 ft | 243 kts | 227° |
| 2026-05-03 23:54 | -25.30056 | -64.69470 | 20059 ft | 244 kts | 227° |
| 2026-05-03 23:54 | -25.31265 | -64.70782 | 20063 ft | 245 kts | 227° |
| 2026-05-03 23:55 | -25.32491 | -64.72115 | 20065 ft | 249 kts | 227° |
| 2026-05-03 23:55 | -25.33736 | -64.73468 | 20068 ft | 252 kts | 227° |
| 2026-05-03 23:55 | -25.34932 | -64.74894 | 20062 ft | 253 kts | 237° |
| 2026-05-03 23:55 | -25.35709 | -64.76625 | 20063 ft | 253 kts | 253° |
| 2026-05-03 23:56 | -25.36250 | -64.78478 | 20063 ft | 254 kts | 251° |
| 2026-05-03 23:56 | -25.36852 | -64.80316 | 20064 ft | 255 kts | 250° |
| 2026-05-03 23:56 | -25.37544 | -64.82121 | 20069 ft | 256 kts | 243° |
| 2026-05-03 23:56 | -25.38432 | -64.83830 | 20066 ft | 257 kts | 240° |
| 2026-05-03 23:57 | -25.39479 | -64.85438 | 20063 ft | 258 kts | 233° |
| 2026-05-03 23:57 | -25.40662 | -64.86938 | 20065 ft | 259 kts | 228° |
| 2026-05-03 23:57 | -25.42121 | -64.88132 | 20073 ft | 265 kts | 211° |
| 2026-05-03 23:57 | -25.43888 | -64.88799 | 20071 ft | 273 kts | 195° |
| 2026-05-03 23:58 | -25.45803 | -64.88945 | 20063 ft | 278 kts | 186° |
| 2026-05-03 23:58 | -25.47745 | -64.88902 | 20070 ft | 280 kts | 184° |
| 2026-05-03 23:58 | -25.49669 | -64.88806 | 20066 ft | 280 kts | 183° |
| 2026-05-03 23:58 | -25.51616 | -64.88687 | 20066 ft | 281 kts | 182° |
| 2026-05-03 23:59 | -25.53565 | -64.88558 | 20064 ft | 281 kts | 182° |
| 2026-05-03 23:59 | -25.55518 | -64.88425 | 20066 ft | 281 kts | 182° |
| 2026-05-03 23:59 | -25.57471 | -64.88291 | 20061 ft | 281 kts | 182° |
| 2026-05-03 23:59 | -25.59424 | -64.88157 | 20061 ft | 281 kts | 182° |
| 2026-05-04 00:00 | -25.61375 | -64.88023 | 20062 ft | 281 kts | 182° |
| 2026-05-04 00:00 | -25.63330 | -64.87889 | 20065 ft | 281 kts | 182° |
| 2026-05-04 00:00 | -25.65284 | -64.87755 | 20064 ft | 281 kts | 182° |
| 2026-05-04 00:00 | -25.67237 | -64.87621 | 20057 ft | 281 kts | 182° |
| 2026-05-04 00:01 | -25.69192 | -64.87487 | 20063 ft | 281 kts | 182° |
| 2026-05-04 00:01 | -25.71145 | -64.87355 | 20055 ft | 281 kts | 182° |
| 2026-05-04 00:01 | -25.73104 | -64.87222 | 20058 ft | 281 kts | 182° |
| 2026-05-04 00:01 | -25.75056 | -64.87088 | 20059 ft | 281 kts | 182° |
| 2026-05-04 00:02 | -25.77013 | -64.86955 | 20050 ft | 281 kts | 182° |
| 2026-05-04 00:02 | -25.78968 | -64.86823 | 20056 ft | 281 kts | 182° |
| 2026-05-04 00:02 | -25.80920 | -64.86692 | 20061 ft | 281 kts | 182° |
| 2026-05-04 00:02 | -25.82873 | -64.86561 | 20060 ft | 281 kts | 182° |
| 2026-05-04 00:03 | -25.84827 | -64.86429 | 20061 ft | 281 kts | 182° |
| 2026-05-04 00:03 | -25.86781 | -64.86298 | 20053 ft | 281 kts | 182° |
| 2026-05-04 00:03 | -25.88254 | -64.86198 | 20050 ft | 281 kts | 182° |
| 2026-05-04 00:03 | -25.90216 | -64.86065 | 20047 ft | 281 kts | 182° |
| 2026-05-04 00:04 | -25.92146 | -64.85932 | 20055 ft | 281 kts | 182° |
| 2026-05-04 00:04 | -25.94097 | -64.85796 | 20045 ft | 281 kts | 182° |
| 2026-05-04 00:04 | -25.96047 | -64.85660 | 20041 ft | 280 kts | 182° |
| 2026-05-04 00:04 | -25.97989 | -64.85523 | 20045 ft | 280 kts | 182° |
| 2026-05-04 00:05 | -25.99929 | -64.85385 | 20043 ft | 279 kts | 182° |
| 2026-05-04 00:05 | -26.01869 | -64.85248 | 20047 ft | 279 kts | 183° |
| 2026-05-04 00:05 | -26.03804 | -64.85110 | 20044 ft | 279 kts | 183° |
| 2026-05-04 00:05 | -26.05742 | -64.84972 | 20042 ft | 279 kts | 183° |
| 2026-05-04 00:06 | -26.07676 | -64.84833 | 20043 ft | 278 kts | 183° |
| 2026-05-04 00:06 | -26.09609 | -64.84696 | 20035 ft | 278 kts | 182° |
| 2026-05-04 00:06 | -26.11537 | -64.84562 | 20041 ft | 277 kts | 182° |
| 2026-05-04 00:06 | -26.13461 | -64.84426 | 20035 ft | 277 kts | 183° |
| 2026-05-04 00:07 | -26.15384 | -64.84288 | 20038 ft | 277 kts | 183° |
| 2026-05-04 00:07 | -26.17307 | -64.84149 | 20035 ft | 277 kts | 183° |
| 2026-05-04 00:07 | -26.19235 | -64.84011 | 20037 ft | 278 kts | 183° |
| 2026-05-04 00:07 | -26.21164 | -64.83874 | 20034 ft | 278 kts | 183° |
| 2026-05-04 00:08 | -26.23097 | -64.83738 | 20039 ft | 278 kts | 183° |
| 2026-05-04 00:08 | -26.25033 | -64.83600 | 20029 ft | 279 kts | 183° |
| 2026-05-04 00:08 | -26.26972 | -64.83464 | 20025 ft | 279 kts | 183° |
| 2026-05-04 00:08 | -26.28906 | -64.83329 | 20023 ft | 279 kts | 183° |
| 2026-05-04 00:09 | -26.30839 | -64.83217 | 20020 ft | 276 kts | 187° |
| 2026-05-04 00:09 | -26.32706 | -64.83510 | 20019 ft | 269 kts | 199° |
| 2026-05-04 00:09 | -26.34563 | -64.84052 | 19525 ft | 284 kts | 201° |
| 2026-05-04 00:09 | -26.36487 | -64.84706 | 19140 ft | 292 kts | 202° |
| 2026-05-04 00:10 | -26.38394 | -64.85399 | 19122 ft | 283 kts | 204° |
| 2026-05-04 00:10 | -26.40215 | -64.86118 | 18869 ft | 274 kts | 205° |
| 2026-05-04 00:10 | -26.41997 | -64.86866 | 18425 ft | 273 kts | 205° |
| 2026-05-04 00:10 | -26.43764 | -64.87630 | 17690 ft | 272 kts | 205° |
| 2026-05-04 00:11 | -26.45500 | -64.88406 | 16972 ft | 272 kts | 206° |
| 2026-05-04 00:11 | -26.47250 | -64.89214 | 16261 ft | 272 kts | 207° |
| 2026-05-04 00:11 | -26.48973 | -64.90091 | 15510 ft | 272 kts | 208° |
| 2026-05-04 00:11 | -26.50674 | -64.91011 | 14791 ft | 272 kts | 208° |
| 2026-05-04 00:12 | -26.52367 | -64.91961 | 14055 ft | 273 kts | 209° |
| 2026-05-04 00:12 | -26.54054 | -64.92934 | 13302 ft | 272 kts | 209° |
| 2026-05-04 00:12 | -26.55725 | -64.93921 | 12539 ft | 270 kts | 209° |
| 2026-05-04 00:12 | -26.57380 | -64.94915 | 11800 ft | 269 kts | 208° |
| 2026-05-04 00:13 | -26.59023 | -64.95907 | 11072 ft | 268 kts | 208° |
| 2026-05-04 00:13 | -26.60650 | -64.96905 | 10352 ft | 266 kts | 208° |
| 2026-05-04 00:13 | -26.62264 | -64.97912 | 9679 ft | 263 kts | 208° |
| 2026-05-04 00:13 | -26.63816 | -64.98890 | 9316 ft | 248 kts | 208° |
| 2026-05-04 00:14 | -26.65270 | -64.99802 | 9146 ft | 230 kts | 208° |
| 2026-05-04 00:14 | -26.66613 | -65.00643 | 9068 ft | 213 kts | 208° |
| 2026-05-04 00:14 | -26.67860 | -65.01428 | 9028 ft | 198 kts | 211° |
| 2026-05-04 00:14 | -26.68666 | -65.02574 | 9021 ft | 188 kts | 253° |
| 2026-05-04 00:15 | -26.68848 | -65.03992 | 8994 ft | 181 kts | 266° |
| 2026-05-04 00:15 | -26.68812 | -65.05367 | 8988 ft | 173 kts | 271° |
| 2026-05-04 00:15 | -26.68793 | -65.06662 | 8985 ft | 163 kts | 251° |
| 2026-05-04 00:15 | -26.69502 | -65.07514 | 8998 ft | 151 kts | 202° |
| 2026-05-04 00:16 | -26.70472 | -65.07923 | 8982 ft | 147 kts | 200° |
| 2026-05-04 00:16 | -26.71440 | -65.08329 | 8987 ft | 158 kts | 200° |
| 2026-05-04 00:16 | -26.72562 | -65.08757 | 8995 ft | 181 kts | 196° |
| 2026-05-04 00:16 | -26.73849 | -65.09085 | 8997 ft | 198 kts | 190° |
| 2026-05-04 00:17 | -26.75251 | -65.09326 | 8995 ft | 209 kts | 188° |
| 2026-05-04 00:17 | -26.76752 | -65.09544 | 8720 ft | 229 kts | 187° |
| 2026-05-04 00:17 | -26.78420 | -65.09765 | 8194 ft | 252 kts | 187° |
| 2026-05-04 00:17 | -26.79604 | -65.09915 | 7804 ft | 265 kts | 187° |
| 2026-05-04 00:18 | -26.81476 | -65.10184 | 7319 ft | 275 kts | 188° |
| 2026-05-04 00:18 | -26.83400 | -65.10505 | 7003 ft | 276 kts | 190° |
| 2026-05-04 00:18 | -26.85272 | -65.10867 | 6612 ft | 278 kts | 191° |
| 2026-05-04 00:18 | -26.87181 | -65.11224 | 6172 ft | 279 kts | 189° |
| 2026-05-04 00:19 | -26.89101 | -65.11535 | 5759 ft | 278 kts | 189° |
| 2026-05-04 00:19 | -26.91012 | -65.11862 | 5374 ft | 277 kts | 189° |
| 2026-05-04 00:19 | -26.92892 | -65.12192 | 5165 ft | 270 kts | 189° |
| 2026-05-04 00:19 | -26.94715 | -65.12519 | 5074 ft | 261 kts | 189° |
| 2026-05-04 00:20 | -26.96484 | -65.12833 | 5006 ft | 252 kts | 189° |
| 2026-05-04 00:20 | -26.98174 | -65.13156 | 5051 ft | 240 kts | 190° |
| 2026-05-04 00:20 | -26.99797 | -65.13468 | 4944 ft | 236 kts | 190° |
| 2026-05-04 00:20 | -27.01381 | -65.13889 | 4766 ft | 232 kts | 202° |
| 2026-05-04 00:21 | -27.02755 | -65.14827 | 4346 ft | 232 kts | 218° |
| 2026-05-04 00:21 | -27.04020 | -65.15889 | 4119 ft | 221 kts | 218° |
| 2026-05-04 00:21 | -27.05222 | -65.16913 | 3948 ft | 213 kts | 218° |
| 2026-05-04 00:21 | -27.06394 | -65.17912 | 3716 ft | 210 kts | 218° |
| 2026-05-04 00:22 | -27.07683 | -65.18617 | 3607 ft | 201 kts | 188° |
| 2026-05-04 00:22 | -27.09003 | -65.18400 | 3533 ft | 188 kts | 148° |
| 2026-05-04 00:22 | -27.09837 | -65.17405 | 3478 ft | 171 kts | 102° |
| 2026-05-04 00:22 | -27.09719 | -65.16178 | 3415 ft | 158 kts | 53° |
| 2026-05-04 00:23 | -27.08874 | -65.15522 | 3487 ft | 148 kts | 18° |
| 2026-05-04 00:23 | -27.07885 | -65.15238 | 3486 ft | 146 kts | 13° |
| 2026-05-04 00:23 | -27.06895 | -65.15085 | 3494 ft | 144 kts | 1° |
| 2026-05-04 00:23 | -27.05916 | -65.14929 | 3424 ft | 147 kts | 14° |
| 2026-05-04 00:24 | -27.04919 | -65.14702 | 3398 ft | 146 kts | 12° |
| 2026-05-04 00:24 | -27.03898 | -65.14508 | 3323 ft | 147 kts | 13° |
| 2026-05-04 00:24 | -27.03245 | -65.14387 | 4192 ft | 73 kts | 13° |
| 2026-05-04 00:24 | -27.02545 | -65.14201 | 3841 ft | 120 kts | 14° |
| 2026-05-04 00:25 | -27.01708 | -65.13999 | 3849 ft | 125 kts | 11° |
| 2026-05-04 00:25 | -27.00859 | -65.13832 | 3846 ft | 124 kts | 12° |
| 2026-05-04 00:25 | -27.00005 | -65.13654 | 3692 ft | 125 kts | 12° |
| 2026-05-04 00:25 | -26.99155 | -65.13473 | 3550 ft | 125 kts | 11° |
| 2026-05-04 00:26 | -26.98291 | -65.13319 | 3461 ft | 126 kts | 11° |
| 2026-05-04 00:26 | -26.97414 | -65.13128 | 3510 ft | 130 kts | 13° |
| 2026-05-04 00:26 | -26.96519 | -65.12927 | 3547 ft | 133 kts | 12° |
| 2026-05-04 00:26 | -26.95619 | -65.12744 | 3508 ft | 131 kts | 12° |
| 2026-05-04 00:27 | -26.94713 | -65.12533 | 3387 ft | 134 kts | 12° |
| 2026-05-04 00:27 | -26.93786 | -65.12374 | 3229 ft | 135 kts | 11° |
| 2026-05-04 00:27 | -26.92862 | -65.12189 | 3021 ft | 135 kts | 13° |
| 2026-05-04 00:27 | -26.91939 | -65.12009 | 2812 ft | 135 kts | 11° |
| 2026-05-04 00:28 | -26.91012 | -65.11846 | 2619 ft | 135 kts | 12° |
| 2026-05-04 00:28 | -26.90097 | -65.11647 | 2455 ft | 134 kts | 13° |
| 2026-05-04 00:28 | -26.89178 | -65.11450 | 2269 ft | 135 kts | 9° |
| 2026-05-04 00:28 | -26.88244 | -65.11284 | 2103 ft | 137 kts | 11° |
| 2026-05-04 00:29 | -26.87286 | -65.11038 | 1899 ft | 134 kts | 15° |
| 2026-05-04 00:29 | -26.86449 | -65.10816 | 1749 ft | 118 kts | 5° |
| 2026-05-04 00:29 | -26.85649 | -65.10761 | 1562 ft | 108 kts | 6° |
| 2026-05-04 00:29 | -26.84943 | -65.10641 | 1454 ft | 93 kts | 10° |
| 2026-05-04 00:30 | -26.84665 | -65.10586 | 1454 ft | 0 kts | 9° |